Boogaloo Solo Sailor — FIBQ — position and weather

sailwx.info

Track history (hours):
 
Tides and Currents Weather Stations Pressure Air Temp Water Temp Dewpoint Dewpoint Depression Visibility Wind Speed Wind Dir Waves Ship Positions

Boogaloo Solo Sailor

Last reported at 2018-Sep-20 14:13 UTC. Time now 2018-Sep-21 08:23 UTC.
Position N 47°43' W 003°22'.

Length 16 m.

Type: Sailing vessel. MMSI: 228283900.

Date/timePositionNaut miles runAvg speedWind from/ knotsBaromVisibWave heightAir tempDewpointWater temp
2018-Sep-20 14:13N 47°43' W 003°22'0 0.0
2018-Sep-20 13:58N 47°43' W 003°22'0 0.4
2018-Sep-20 13:29N 47°43' W 003°22'4 6.2
2018-Sep-20 12:54N 47°40' W 003°24'511.1
2018-Sep-20 12:28N 47°36' W 003°22'6 1.7
2018-Sep-20 08:46N 47°40' W 003°28'2 9.3
2018-Sep-20 08:30N 47°41' W 003°24'2 4.9
2018-Sep-20 08:03N 47°43' W 003°22'0 3.7
2018-Sep-20 08:00N 47°43' W 003°22'0 0.6
2018-Sep-20 07:29N 47°43' W 003°22'0 0.0
2018-Sep-20 07:02N 47°43' W 003°22'0 0.1
2018-Sep-20 06:59N 47°43' W 003°22'0 0.0
2018-Sep-18 14:57N 47°43' W 003°22'0 0.0
2018-Sep-18 14:30N 47°43' W 003°22'0 0.0
2018-Sep-17 16:15N 47°43' W 003°22'0 0.0
2018-Sep-17 16:03N 47°43' W 003°22'0 0.0
2018-Sep-17 15:54N 47°43' W 003°22'0 0.0
2018-Sep-17 15:30N 47°43' W 003°22'0 0.0
2018-Sep-17 15:03N 47°43' W 003°22'0 0.1
2018-Sep-17 15:00N 47°43' W 003°22'0 0.0
2018-Sep-17 14:30N 47°43' W 003°22'0 0.0
2018-Sep-17 13:57N 47°43' W 003°22'0 0.0
2018-Sep-17 13:30N 47°43' W 003°22'0 0.0
2018-Sep-17 13:03N 47°43' W 003°22'0 0.0
2018-Sep-17 13:00N 47°43' W 003°22'0 0.0
2018-Sep-17 12:30N 47°43' W 003°22'0 0.0
2018-Sep-17 12:00N 47°43' W 003°22'0 0.0
2018-Sep-17 11:30N 47°43' W 003°22'0 0.0
2018-Sep-17 11:03N 47°43' W 003°22'0 0.0
2018-Sep-17 11:00N 47°43' W 003°22'0 0.0
2018-Sep-17 10:30N 47°43' W 003°22'0 0.0
2018-Sep-17 10:03N 47°43' W 003°22'0 0.1
2018-Sep-17 10:00N 47°43' W 003°22'0 0.0
2018-Sep-17 09:27N 47°43' W 003°22'1 3.1
2018-Sep-17 09:03N 47°42' W 003°22'0 3.4
2018-Sep-17 08:58N 47°42' W 003°23'  
2018-Sep-13 06:43N 47°43' W 003°22'0 0.0
2018-Sep-13 06:07N 47°43' W 003°22'0 0.0
2018-Sep-13 06:01N 47°43' W 003°22'0 0.0
2018-Sep-12 16:51N 47°43' W 003°22'0 0.0
2018-Sep-12 16:30N 47°43' W 003°22'0 0.0
2018-Sep-12 16:03N 47°43' W 003°22'0 0.0
2018-Sep-12 16:00N 47°43' W 003°22'0 0.0
2018-Sep-12 15:30N 47°43' W 003°22'0 0.0
2018-Sep-12 15:03N 47°43' W 003°22'0 0.0
2018-Sep-12 14:57N 47°43' W 003°22'0 0.0
2018-Sep-12 14:30N 47°43' W 003°22'0 0.0
2018-Sep-12 14:00N 47°43' W 003°22'0 0.0
2018-Sep-12 13:30N 47°43' W 003°22'0 0.0
2018-Sep-12 13:03N 47°43' W 003°22'0 0.0
2018-Sep-12 13:00N 47°43' W 003°22'0 0.0
2018-Sep-12 12:30N 47°43' W 003°22'0 0.0
2018-Sep-12 12:00N 47°43' W 003°22'0 0.0
2018-Sep-12 11:30N 47°43' W 003°22'0 0.0
2018-Sep-12 11:03N 47°43' W 003°22'0 0.0
2018-Sep-12 11:00N 47°43' W 003°22'0 0.0
2018-Sep-12 10:30N 47°43' W 003°22'0 0.0
2018-Sep-12 10:03N 47°43' W 003°22'0 0.0
2018-Sep-12 10:00N 47°43' W 003°22'0 0.0
2018-Sep-12 09:30N 47°43' W 003°22'0 0.0
2018-Sep-12 09:03N 47°43' W 003°22'0 0.0
2018-Sep-12 09:00N 47°43' W 003°22'0 0.0
2018-Sep-12 08:30N 47°43' W 003°22'0 0.0
2018-Sep-12 08:03N 47°43' W 003°22'0 0.0
2018-Sep-12 08:00N 47°43' W 003°22'0 0.0
2018-Sep-12 07:30N 47°43' W 003°22'0 0.0
2018-Sep-11 15:31N 47°43' W 003°22'0 0.0
2018-Sep-11 15:28N 47°43' W 003°22'0 0.0
2018-Sep-11 15:01N 47°43' W 003°22'0 0.0
2018-Sep-11 14:55N 47°43' W 003°22'0 0.0
2018-Sep-11 14:28N 47°43' W 003°22'0 0.0
2018-Sep-11 13:58N 47°43' W 003°22'0 0.0
2018-Sep-11 13:28N 47°43' W 003°22'0 0.0
2018-Sep-11 13:01N 47°43' W 003°22'0 0.0
2018-Sep-11 12:55N 47°43' W 003°22'0 0.0
2018-Sep-11 12:25N 47°43' W 003°22'0 0.0
2018-Sep-11 12:01N 47°43' W 003°22'0 0.0
2018-Sep-11 11:58N 47°43' W 003°22'0 0.0
2018-Sep-11 11:28N 47°43' W 003°22'0 0.0
2018-Sep-11 10:55N 47°43' W 003°22'0 0.0
2018-Sep-11 10:19N 47°43' W 003°22'0 0.0
2018-Sep-11 09:58N 47°43' W 003°22'0 0.0
2018-Sep-11 09:28N 47°43' W 003°22'0 0.0
2018-Sep-11 09:01N 47°43' W 003°22'0 0.0
2018-Sep-11 08:58N 47°43' W 003°22'0 0.0
2018-Sep-11 08:28N 47°43' W 003°22'  
Track history (hours):
 
Tides and Currents Weather Stations Pressure Air Temp Water Temp Dewpoint Dewpoint Depression Visibility Wind Speed Wind Dir Waves Ship Positions

Boogaloo Solo Sailor

Last reported at 2018-Sep-20 14:13 UTC. Time now 2018-Sep-21 08:23 UTC.
Position N 47°43' W 003°22'.

Length 16 m.

Type: Sailing vessel. MMSI: 228283900.

Date/timePositionNaut miles runAvg speedWind from/ knotsBaromVisibWave heightAir tempDewpointWater temp
2018-Sep-20 14:13N 47°43' W 003°22'0 0.0
2018-Sep-20 13:58N 47°43' W 003°22'0 0.4
2018-Sep-20 13:29N 47°43' W 003°22'4 6.2
2018-Sep-20 12:54N 47°40' W 003°24'511.1
2018-Sep-20 12:28N 47°36' W 003°22'6 1.7
2018-Sep-20 08:46N 47°40' W 003°28'2 9.3
2018-Sep-20 08:30N 47°41' W 003°24'2 4.9
2018-Sep-20 08:03N 47°43' W 003°22'0 3.7
2018-Sep-20 08:00N 47°43' W 003°22'0 0.6
2018-Sep-20 07:29N 47°43' W 003°22'0 0.0
2018-Sep-20 07:02N 47°43' W 003°22'0 0.1
2018-Sep-20 06:59N 47°43' W 003°22'0 0.0
2018-Sep-18 14:57N 47°43' W 003°22'0 0.0
2018-Sep-18 14:30N 47°43' W 003°22'0 0.0
2018-Sep-17 16:15N 47°43' W 003°22'0 0.0
2018-Sep-17 16:03N 47°43' W 003°22'0 0.0
2018-Sep-17 15:54N 47°43' W 003°22'0 0.0
2018-Sep-17 15:30N 47°43' W 003°22'0 0.0
2018-Sep-17 15:03N 47°43' W 003°22'0 0.1
2018-Sep-17 15:00N 47°43' W 003°22'0 0.0
2018-Sep-17 14:30N 47°43' W 003°22'0 0.0
2018-Sep-17 13:57N 47°43' W 003°22'0 0.0
2018-Sep-17 13:30N 47°43' W 003°22'0 0.0
2018-Sep-17 13:03N 47°43' W 003°22'0 0.0
2018-Sep-17 13:00N 47°43' W 003°22'0 0.0
2018-Sep-17 12:30N 47°43' W 003°22'0 0.0
2018-Sep-17 12:00N 47°43' W 003°22'0 0.0
2018-Sep-17 11:30N 47°43' W 003°22'0 0.0
2018-Sep-17 11:03N 47°43' W 003°22'0 0.0
2018-Sep-17 11:00N 47°43' W 003°22'0 0.0
2018-Sep-17 10:30N 47°43' W 003°22'0 0.0
2018-Sep-17 10:03N 47°43' W 003°22'0 0.1
2018-Sep-17 10:00N 47°43' W 003°22'0 0.0
2018-Sep-17 09:27N 47°43' W 003°22'1 3.1
2018-Sep-17 09:03N 47°42' W 003°22'0 3.4
2018-Sep-17 08:58N 47°42' W 003°23'  
2018-Sep-13 06:43N 47°43' W 003°22'0 0.0
2018-Sep-13 06:07N 47°43' W 003°22'0 0.0
2018-Sep-13 06:01N 47°43' W 003°22'0 0.0
2018-Sep-12 16:51N 47°43' W 003°22'0 0.0
2018-Sep-12 16:30N 47°43' W 003°22'0 0.0
2018-Sep-12 16:03N 47°43' W 003°22'0 0.0
2018-Sep-12 16:00N 47°43' W 003°22'0 0.0
2018-Sep-12 15:30N 47°43' W 003°22'0 0.0
2018-Sep-12 15:03N 47°43' W 003°22'0 0.0
2018-Sep-12 14:57N 47°43' W 003°22'0 0.0
2018-Sep-12 14:30N 47°43' W 003°22'0 0.0
2018-Sep-12 14:00N 47°43' W 003°22'0 0.0
2018-Sep-12 13:30N 47°43' W 003°22'0 0.0
2018-Sep-12 13:03N 47°43' W 003°22'0 0.0
2018-Sep-12 13:00N 47°43' W 003°22'0 0.0
2018-Sep-12 12:30N 47°43' W 003°22'0 0.0
2018-Sep-12 12:00N 47°43' W 003°22'0 0.0
2018-Sep-12 11:30N 47°43' W 003°22'0 0.0
2018-Sep-12 11:03N 47°43' W 003°22'0 0.0
2018-Sep-12 11:00N 47°43' W 003°22'0 0.0
2018-Sep-12 10:30N 47°43' W 003°22'0 0.0
2018-Sep-12 10:03N 47°43' W 003°22'0 0.0
2018-Sep-12 10:00N 47°43' W 003°22'0 0.0
2018-Sep-12 09:30N 47°43' W 003°22'0 0.0
2018-Sep-12 09:03N 47°43' W 003°22'0 0.0
2018-Sep-12 09:00N 47°43' W 003°22'0 0.0
2018-Sep-12 08:30N 47°43' W 003°22'0 0.0
2018-Sep-12 08:03N 47°43' W 003°22'0 0.0
2018-Sep-12 08:00N 47°43' W 003°22'0 0.0
2018-Sep-12 07:30N 47°43' W 003°22'0 0.0
2018-Sep-11 15:31N 47°43' W 003°22'0 0.0
2018-Sep-11 15:28N 47°43' W 003°22'0 0.0
2018-Sep-11 15:01N 47°43' W 003°22'0 0.0
2018-Sep-11 14:55N 47°43' W 003°22'0 0.0
2018-Sep-11 14:28N 47°43' W 003°22'0 0.0
2018-Sep-11 13:58N 47°43' W 003°22'0 0.0
2018-Sep-11 13:28N 47°43' W 003°22'0 0.0
2018-Sep-11 13:01N 47°43' W 003°22'0 0.0
2018-Sep-11 12:55N 47°43' W 003°22'0 0.0
2018-Sep-11 12:25N 47°43' W 003°22'0 0.0
2018-Sep-11 12:01N 47°43' W 003°22'0 0.0
2018-Sep-11 11:58N 47°43' W 003°22'0 0.0
2018-Sep-11 11:28N 47°43' W 003°22'0 0.0
2018-Sep-11 10:55N 47°43' W 003°22'0 0.0
2018-Sep-11 10:19N 47°43' W 003°22'0 0.0
2018-Sep-11 09:58N 47°43' W 003°22'0 0.0
2018-Sep-11 09:28N 47°43' W 003°22'0 0.0
2018-Sep-11 09:01N 47°43' W 003°22'0 0.0
2018-Sep-11 08:58N 47°43' W 003°22'0 0.0
2018-Sep-11 08:28N 47°43' W 003°22'  

Dump ship's entire track history